createdAt,value
2022-12-26T00:02:01.545Z,8.67
2022-12-26T00:04:51.549Z,8.66
2022-12-26T00:07:14.474Z,8.65
2022-12-26T00:09:40.899Z,8.65
2022-12-26T00:12:07.374Z,8.67
2022-12-26T00:14:33.952Z,8.66
2022-12-26T00:17:00.344Z,8.67
2022-12-26T00:19:26.759Z,8.65
2022-12-26T00:21:53.216Z,8.66
2022-12-26T00:24:19.621Z,8.64
2022-12-26T00:26:46.034Z,8.64
2022-12-26T00:29:12.477Z,8.66
2022-12-26T00:31:38.928Z,8.67
2022-12-26T00:34:05.487Z,8.69
2022-12-26T00:36:33.747Z,8.70
2022-12-26T00:39:01.949Z,8.70
2022-12-26T00:41:29.005Z,8.70
2022-12-26T00:43:56.273Z,8.71
2022-12-26T00:46:23.343Z,8.67
2022-12-26T00:48:49.834Z,8.67
2022-12-26T00:51:16.371Z,8.68
2022-12-26T00:53:43.108Z,8.70
2022-12-26T00:56:09.839Z,8.72
2022-12-26T00:58:36.858Z,8.70
2022-12-26T01:01:10.814Z,8.68
2022-12-26T01:03:37.386Z,8.67
2022-12-26T01:06:04.227Z,8.67
2022-12-26T01:08:31.166Z,8.64
2022-12-26T01:10:58.108Z,8.66
2022-12-26T01:13:24.561Z,8.66
2022-12-26T01:15:52.482Z,8.65
2022-12-26T01:18:19.621Z,8.69
2022-12-26T01:20:46.363Z,8.67
2022-12-26T01:23:12.803Z,8.65
2022-12-26T01:26:19.308Z,8.65
2022-12-26T01:28:26.570Z,8.54
2022-12-26T01:30:53.099Z,8.55
2022-12-26T01:33:19.665Z,8.59
2022-12-26T01:35:51.153Z,8.61
2022-12-26T01:38:17.589Z,8.64
2022-12-26T01:40:44.440Z,8.64
2022-12-26T01:43:12.677Z,8.63
2022-12-26T01:45:39.705Z,8.64
2022-12-26T01:48:18.692Z,8.65
2022-12-26T01:50:53.047Z,8.67
2022-12-26T01:53:28.901Z,8.68
2022-12-26T01:56:01.260Z,8.66
2022-12-26T01:58:34.166Z,8.68
2022-12-26T02:01:03.588Z,8.67
2022-12-26T02:03:48.929Z,8.65
2022-12-26T02:06:16.241Z,8.66
2022-12-26T02:08:44.237Z,8.68
2022-12-26T02:11:37.812Z,8.71
2022-12-26T02:14:07.276Z,8.70
2022-12-26T02:16:35.921Z,8.64
2022-12-26T02:19:03.732Z,8.61
2022-12-26T02:21:33.138Z,8.59
2022-12-26T02:23:59.530Z,8.62
2022-12-26T02:26:48.161Z,8.62
2022-12-26T02:29:23.636Z,8.63
2022-12-26T02:32:14.689Z,8.66
2022-12-26T02:35:14.780Z,8.71
2022-12-26T02:38:02.991Z,8.69
2022-12-26T02:40:53.802Z,8.68
2022-12-26T02:43:45.264Z,8.70
2022-12-26T02:46:39.442Z,8.71
2022-12-26T02:49:17.839Z,8.65
2022-12-26T02:52:15.023Z,8.63
2022-12-26T02:54:59.674Z,8.65
2022-12-26T02:57:59.714Z,8.66
2022-12-26T03:00:46.050Z,8.65
2022-12-26T03:03:37.257Z,8.61
2022-12-26T03:06:24.082Z,8.62
2022-12-26T03:09:32.224Z,8.64
2022-12-26T03:12:25.060Z,8.66
2022-12-26T03:14:57.955Z,8.65
2022-12-26T03:17:30.653Z,8.66
2022-12-26T03:20:03.307Z,8.58
2022-12-26T03:22:41.702Z,8.53
2022-12-26T03:25:30.391Z,8.58
2022-12-26T03:27:57.053Z,8.56
2022-12-26T03:30:42.038Z,8.56
2022-12-26T03:33:31.498Z,8.58
2022-12-26T03:35:58.765Z,8.50
2022-12-26T03:38:55.301Z,8.53
2022-12-26T03:41:58.389Z,8.57
2022-12-26T03:44:55.727Z,8.59
2022-12-26T03:47:58.723Z,8.64
2022-12-26T03:51:08.543Z,8.61
2022-12-26T03:54:22.127Z,8.63
2022-12-26T03:57:14.362Z,8.62
2022-12-26T04:00:11.156Z,8.67
2022-12-26T04:02:58.808Z,8.62
2022-12-26T04:05:44.610Z,8.64
2022-12-26T04:08:35.561Z,8.66
2022-12-26T04:11:22.940Z,8.64
2022-12-26T04:14:19.614Z,8.60
2022-12-26T04:17:10.525Z,8.60
2022-12-26T04:19:51.093Z,8.67
2022-12-26T04:22:53.648Z,8.67
2022-12-26T04:25:49.761Z,8.65
2022-12-26T04:28:37.560Z,8.67
2022-12-26T04:31:41.697Z,8.67
2022-12-26T04:34:37.949Z,8.64
2022-12-26T04:37:30.147Z,8.66
2022-12-26T04:40:17.368Z,8.69
2022-12-26T04:43:47.438Z,8.71
2022-12-26T04:45:52.724Z,8.72
2022-12-26T04:48:37.834Z,8.74
2022-12-26T04:51:04.617Z,8.74
2022-12-26T04:53:31.055Z,8.73
2022-12-26T04:55:57.433Z,8.74
2022-12-26T04:58:24.326Z,8.73
2022-12-26T05:00:51.034Z,8.73
2022-12-26T05:03:36.399Z,8.77
2022-12-26T05:06:21.616Z,8.76
2022-12-26T05:09:06.291Z,8.76
2022-12-26T05:11:35.166Z,8.76
2022-12-26T05:14:01.814Z,8.74
2022-12-26T05:16:47.104Z,8.71
2022-12-26T05:19:33.850Z,8.70
2022-12-26T05:22:21.101Z,8.65
2022-12-26T05:25:06.457Z,8.62
2022-12-26T05:27:55.790Z,8.67
2022-12-26T05:30:23.030Z,8.68
2022-12-26T05:33:07.762Z,8.71
2022-12-26T05:35:35.404Z,8.70
2022-12-26T05:38:02.474Z,8.73
2022-12-26T05:40:28.987Z,8.72
2022-12-26T05:42:55.435Z,8.64
2022-12-26T05:45:21.856Z,8.66
2022-12-26T05:47:51.790Z,8.65
2022-12-26T05:50:18.701Z,8.68
2022-12-26T05:52:45.103Z,8.69
2022-12-26T05:55:11.513Z,8.63
2022-12-26T05:57:37.957Z,8.66
2022-12-26T06:00:05.089Z,8.65
2022-12-26T06:02:31.553Z,8.67
2022-12-26T06:04:58.018Z,8.68
2022-12-26T06:07:24.547Z,8.70
2022-12-26T06:09:50.984Z,8.72
2022-12-26T06:12:17.402Z,8.72
2022-12-26T06:14:43.879Z,8.74
2022-12-26T06:17:10.543Z,8.75
2022-12-26T06:19:41.517Z,8.78
2022-12-26T06:22:11.254Z,8.75
2022-12-26T06:24:37.667Z,8.77
2022-12-26T06:27:04.227Z,8.74
2022-12-26T06:29:30.671Z,8.76
2022-12-26T06:31:57.128Z,8.73
2022-12-26T06:34:23.617Z,8.72
2022-12-26T06:36:50.024Z,8.73
2022-12-26T06:39:16.441Z,8.74
2022-12-26T06:41:42.865Z,8.72
2022-12-26T06:44:17.735Z,8.71
2022-12-26T06:46:44.504Z,8.70
2022-12-26T06:49:10.962Z,8.73
2022-12-26T06:51:37.433Z,8.70
2022-12-26T06:54:04.133Z,8.66
2022-12-26T06:56:32.399Z,8.70
2022-12-26T06:59:01.759Z,8.71
2022-12-26T07:01:30.148Z,8.70
2022-12-26T07:03:56.995Z,8.71
2022-12-26T07:06:28.081Z,8.72
2022-12-26T07:09:01.000Z,8.74
2022-12-26T07:11:31.174Z,8.73
2022-12-26T07:13:57.871Z,8.74
2022-12-26T07:16:25.434Z,8.72
2022-12-26T07:18:53.932Z,8.67
2022-12-26T07:21:21.700Z,8.68
2022-12-26T07:23:48.322Z,8.66
2022-12-26T07:26:14.942Z,8.64
2022-12-26T07:28:41.457Z,8.67
2022-12-26T07:31:08.082Z,8.66
2022-12-26T07:33:35.180Z,8.70
2022-12-26T07:36:03.608Z,8.69
2022-12-26T07:38:30.374Z,8.66
2022-12-26T07:40:57.329Z,8.71
2022-12-26T07:43:26.154Z,8.72
2022-12-26T07:45:52.746Z,8.72
2022-12-26T07:48:19.268Z,8.69
2022-12-26T07:50:47.304Z,8.69
2022-12-26T07:53:14.740Z,8.74
2022-12-26T07:55:41.395Z,8.72
2022-12-26T07:58:07.828Z,8.76
2022-12-26T08:00:34.322Z,8.78
2022-12-26T08:03:06.951Z,8.81
2022-12-26T08:05:34.406Z,8.80
2022-12-26T08:08:00.844Z,8.80
2022-12-26T08:10:27.367Z,8.82
2022-12-26T08:12:53.862Z,8.84
2022-12-26T08:15:20.267Z,8.79
2022-12-26T08:17:46.687Z,8.83
2022-12-26T08:20:13.134Z,8.84
2022-12-26T08:22:39.604Z,8.84
2022-12-26T08:25:06.611Z,8.81
2022-12-26T08:27:33.896Z,8.81
2022-12-26T08:30:00.318Z,8.83
2022-12-26T08:32:27.009Z,8.87
2022-12-26T08:34:53.433Z,8.87
2022-12-26T08:37:19.933Z,8.91
2022-12-26T08:39:46.386Z,8.91
2022-12-26T08:42:12.842Z,8.92
2022-12-26T08:44:39.419Z,8.94
2022-12-26T08:47:05.868Z,8.92
2022-12-26T08:49:32.336Z,8.89
2022-12-26T08:52:12.507Z,8.85
2022-12-26T08:54:39.005Z,8.82
2022-12-26T08:57:05.425Z,8.89
2022-12-26T08:59:31.878Z,8.96
2022-12-26T09:01:58.336Z,8.94
2022-12-26T09:04:24.859Z,8.98
2022-12-26T09:06:51.403Z,9.03
2022-12-26T09:09:18.336Z,9.02
2022-12-26T09:11:44.880Z,9.04
2022-12-26T09:14:11.859Z,9.05
2022-12-26T09:16:49.540Z,9.08
2022-12-26T09:19:17.679Z,9.12
2022-12-26T09:21:44.673Z,9.13
2022-12-26T09:24:15.919Z,9.11
2022-12-26T09:26:42.907Z,9.16
2022-12-26T09:29:15.116Z,9.14
2022-12-26T09:31:41.548Z,9.17
2022-12-26T09:34:08.147Z,9.19
2022-12-26T09:36:42.947Z,9.21
2022-12-26T09:39:11.241Z,9.27
2022-12-26T09:42:08.422Z,9.30
2022-12-26T09:44:48.547Z,9.33
2022-12-26T09:47:32.121Z,9.36
2022-12-26T09:50:11.488Z,9.36
2022-12-26T09:52:40.854Z,9.34
2022-12-26T09:55:24.959Z,9.36
2022-12-26T09:57:53.644Z,9.39
2022-12-26T10:00:30.496Z,9.40
2022-12-26T10:02:58.903Z,9.42
2022-12-26T10:05:31.259Z,9.45
2022-12-26T10:08:23.603Z,9.47
2022-12-26T10:11:07.526Z,9.45
2022-12-26T10:13:53.557Z,9.50
2022-12-26T10:17:00.690Z,9.54
2022-12-26T10:19:48.755Z,9.58
2022-12-26T10:23:08.412Z,9.55
2022-12-26T10:25:43.587Z,9.55
2022-12-26T10:28:17.244Z,9.54
2022-12-26T10:30:45.908Z,9.54
2022-12-26T10:33:20.591Z,9.53
2022-12-26T10:35:48.009Z,9.53
2022-12-26T10:38:38.188Z,9.54
2022-12-26T10:41:26.021Z,9.55
2022-12-26T10:43:56.577Z,9.58
2022-12-26T10:46:44.226Z,9.57
2022-12-26T10:49:13.577Z,9.55
2022-12-26T10:51:40.089Z,9.53
2022-12-26T10:54:17.893Z,9.56
2022-12-26T10:56:46.150Z,9.56
2022-12-26T10:59:17.780Z,9.61
2022-12-26T11:01:47.592Z,9.64
2022-12-26T11:04:53.206Z,9.62
2022-12-26T11:07:17.491Z,9.59
2022-12-26T11:09:48.376Z,9.60
2022-12-26T11:12:25.740Z,9.57
2022-12-26T11:14:59.237Z,9.54
2022-12-26T11:17:30.408Z,9.58
2022-12-26T11:20:25.334Z,9.59
2022-12-26T11:22:52.537Z,9.61
2022-12-26T11:25:25.429Z,9.63
2022-12-26T11:27:57.701Z,9.59
2022-12-26T11:30:25.793Z,9.50
2022-12-26T11:33:13.482Z,9.46
2022-12-26T11:35:51.042Z,9.51
2022-12-26T11:38:45.062Z,9.50
2022-12-26T11:41:33.461Z,9.43
2022-12-26T11:44:21.666Z,9.46
2022-12-26T11:47:08.406Z,9.46
2022-12-26T11:49:39.369Z,9.47
2022-12-26T11:52:37.436Z,9.46
2022-12-26T11:55:22.367Z,9.42
2022-12-26T11:58:13.654Z,9.42
2022-12-26T12:00:51.129Z,9.38
2022-12-26T12:03:22.751Z,9.35
2022-12-26T12:06:03.134Z,9.40
2022-12-26T12:08:51.299Z,9.38
2022-12-26T12:11:42.410Z,9.39
2022-12-26T12:14:31.940Z,9.39
2022-12-26T12:17:27.154Z,9.41
2022-12-26T12:20:15.518Z,9.42
2022-12-26T12:23:03.749Z,9.39
2022-12-26T12:25:40.250Z,9.40
2022-12-26T12:28:22.804Z,9.43
2022-12-26T12:31:08.030Z,9.42
2022-12-26T12:33:48.861Z,9.41
2022-12-26T12:36:20.000Z,9.40
2022-12-26T12:38:56.723Z,9.37
2022-12-26T12:42:00.953Z,9.39
2022-12-26T12:44:55.550Z,9.41
2022-12-26T12:47:43.339Z,9.41
2022-12-26T12:50:31.127Z,9.44
2022-12-26T12:53:09.474Z,9.44
2022-12-26T12:55:39.049Z,9.43
2022-12-26T12:58:12.710Z,9.43
2022-12-26T13:00:48.191Z,9.40
2022-12-26T13:03:33.879Z,9.40
2022-12-26T13:06:13.827Z,9.42
2022-12-26T13:08:45.325Z,9.43
2022-12-26T13:11:22.744Z,9.40
2022-12-26T13:14:16.256Z,9.41
2022-12-26T13:16:51.662Z,9.37
2022-12-26T13:19:24.980Z,9.33
2022-12-26T13:21:55.226Z,9.32
2022-12-26T13:24:35.865Z,9.32
2022-12-26T13:27:11.700Z,9.32
2022-12-26T13:29:46.545Z,9.36
2022-12-26T13:32:18.137Z,9.36
2022-12-26T13:34:46.133Z,9.37
2022-12-26T13:37:37.331Z,9.38
2022-12-26T13:40:16.142Z,9.38
2022-12-26T13:43:09.913Z,9.37
2022-12-26T13:45:42.200Z,9.38
2022-12-26T13:48:17.656Z,9.37
2022-12-26T13:50:57.501Z,9.37
2022-12-26T13:53:26.629Z,9.37
2022-12-26T13:55:58.558Z,9.38
2022-12-26T13:58:28.124Z,9.39
2022-12-26T14:01:05.377Z,9.40
2022-12-26T14:04:00.290Z,9.38
2022-12-26T14:06:41.078Z,9.34
2022-12-26T14:09:32.828Z,9.36
2022-12-26T14:12:20.443Z,9.38
2022-12-26T14:14:59.060Z,9.35
2022-12-26T14:18:03.187Z,9.37
2022-12-26T14:20:41.982Z,9.38
2022-12-26T14:23:26.600Z,9.37
2022-12-26T14:26:02.355Z,9.37
2022-12-26T14:29:07.778Z,9.39
2022-12-26T14:32:06.418Z,9.37
2022-12-26T14:34:54.689Z,9.38
2022-12-26T14:37:46.246Z,9.33
2022-12-26T14:40:30.302Z,9.28
2022-12-26T14:43:14.020Z,9.26
2022-12-26T14:45:52.204Z,9.27
2022-12-26T14:48:18.735Z,9.29
2022-12-26T14:50:49.720Z,9.34
2022-12-26T14:53:28.329Z,9.36
2022-12-26T14:56:34.307Z,9.35
2022-12-26T14:59:25.962Z,9.33
2022-12-26T15:02:07.837Z,9.32
2022-12-26T15:05:19.451Z,9.31
2022-12-26T15:08:16.517Z,9.33
2022-12-26T15:11:05.184Z,9.31
2022-12-26T15:13:37.663Z,9.27
2022-12-26T15:16:09.508Z,9.24
2022-12-26T15:18:44.964Z,9.26
2022-12-26T15:21:31.725Z,9.26
2022-12-26T15:24:07.179Z,9.23
2022-12-26T15:26:59.932Z,9.23
2022-12-26T15:29:44.508Z,9.23
2022-12-26T15:32:27.632Z,9.22
2022-12-26T15:35:07.328Z,9.16
2022-12-26T15:37:45.482Z,9.16
2022-12-26T15:40:15.945Z,9.17
2022-12-26T15:42:50.335Z,9.16
2022-12-26T15:45:47.469Z,9.20
2022-12-26T15:48:27.236Z,9.18
2022-12-26T15:50:59.227Z,9.18
2022-12-26T15:53:41.572Z,9.19
2022-12-26T15:56:38.073Z,9.23
2022-12-26T15:59:29.211Z,9.23
2022-12-26T16:01:56.323Z,9.25
2022-12-26T16:04:31.378Z,9.21
2022-12-26T16:07:03.950Z,9.16
2022-12-26T16:09:52.896Z,9.17
2022-12-26T16:12:27.522Z,9.19
2022-12-26T16:15:09.137Z,9.22
2022-12-26T16:17:40.233Z,9.23
2022-12-26T16:20:43.424Z,9.24
2022-12-26T16:23:20.694Z,9.19
2022-12-26T16:25:49.204Z,9.17
2022-12-26T16:28:19.486Z,9.10
2022-12-26T16:30:46.053Z,9.05
2022-12-26T16:33:14.623Z,9.08
2022-12-26T16:35:43.010Z,9.10
2022-12-26T16:38:21.730Z,9.06
2022-12-26T16:40:50.891Z,9.04
2022-12-26T16:43:26.470Z,9.07
2022-12-26T16:45:56.095Z,9.12
2022-12-26T16:48:24.800Z,9.14
2022-12-26T16:50:58.024Z,9.14
2022-12-26T16:53:36.359Z,9.12
2022-12-26T16:56:24.702Z,9.16
2022-12-26T16:59:02.743Z,9.13
2022-12-26T17:01:32.428Z,9.16
2022-12-26T17:04:05.011Z,9.17
2022-12-26T17:06:38.974Z,9.16
2022-12-26T17:09:17.229Z,9.08
2022-12-26T17:11:56.010Z,9.07
2022-12-26T17:14:28.115Z,9.09
2022-12-26T17:17:00.636Z,9.10
2022-12-26T17:19:29.721Z,9.09
2022-12-26T17:22:14.604Z,9.10
2022-12-26T17:24:45.807Z,9.13
2022-12-26T17:27:24.579Z,9.15
2022-12-26T17:30:00.705Z,9.12
2022-12-26T17:32:33.316Z,9.11
2022-12-26T17:35:07.199Z,9.09
2022-12-26T17:37:37.470Z,9.06
2022-12-26T17:40:06.800Z,9.08
2022-12-26T17:42:47.820Z,9.07
2022-12-26T17:45:24.045Z,9.09
2022-12-26T17:47:52.921Z,9.09
2022-12-26T17:50:20.340Z,9.09
2022-12-26T17:52:47.234Z,9.11
2022-12-26T17:55:25.524Z,9.11
2022-12-26T17:57:52.939Z,9.10
2022-12-26T18:00:22.407Z,9.13
2022-12-26T18:02:49.375Z,9.12
2022-12-26T18:05:16.747Z,9.05
2022-12-26T18:07:44.833Z,9.02
2022-12-26T18:10:21.251Z,9.02
2022-12-26T18:12:48.416Z,9.05
2022-12-26T18:15:18.876Z,9.06
2022-12-26T18:17:47.703Z,9.09
2022-12-26T18:20:26.031Z,9.10
2022-12-26T18:22:52.840Z,9.11
2022-12-26T18:25:23.668Z,9.10
2022-12-26T18:27:50.618Z,9.04
2022-12-26T18:30:20.797Z,9.06
2022-12-26T18:32:49.263Z,9.06
2022-12-26T18:35:16.273Z,9.06
2022-12-26T18:37:47.826Z,9.09
2022-12-26T18:40:33.473Z,9.06
2022-12-26T18:43:00.254Z,9.07
2022-12-26T18:45:27.046Z,9.10
2022-12-26T18:47:53.547Z,9.09
2022-12-26T18:50:20.412Z,9.09
2022-12-26T18:52:51.765Z,9.05
2022-12-26T18:55:20.004Z,9.06
2022-12-26T18:57:46.398Z,9.08
2022-12-26T19:00:14.284Z,9.10
2022-12-26T19:02:41.576Z,9.10
2022-12-26T19:05:16.008Z,9.08
2022-12-26T19:07:42.435Z,9.06
2022-12-26T19:10:12.082Z,9.05
2022-12-26T19:12:38.508Z,9.03
2022-12-26T19:15:05.260Z,8.97
2022-12-26T19:17:31.656Z,8.91
2022-12-26T19:19:59.090Z,8.95
2022-12-26T19:22:25.496Z,8.98
2022-12-26T19:24:53.414Z,8.99
2022-12-26T19:27:19.853Z,9.00
2022-12-26T19:29:46.261Z,9.05
2022-12-26T19:32:12.759Z,9.03
2022-12-26T19:34:39.252Z,9.03
2022-12-26T19:37:05.717Z,9.08
2022-12-26T19:39:32.155Z,9.09
2022-12-26T19:41:58.581Z,9.07
2022-12-26T19:44:24.978Z,9.07
2022-12-26T19:47:11.725Z,9.08
2022-12-26T19:49:37.875Z,9.07
2022-12-26T19:52:04.531Z,9.04
2022-12-26T19:54:30.930Z,9.06
2022-12-26T19:56:57.437Z,9.08
2022-12-26T19:59:23.847Z,9.03
2022-12-26T20:01:50.486Z,9.02
2022-12-26T20:04:17.099Z,8.99
2022-12-26T20:06:43.536Z,9.04
2022-12-26T20:09:12.392Z,9.04
2022-12-26T20:11:44.954Z,9.03
2022-12-26T20:14:14.347Z,9.06
2022-12-26T20:19:27.306Z,9.05
2022-12-26T20:21:54.147Z,9.04
2022-12-26T20:24:22.861Z,9.03
2022-12-26T20:26:50.520Z,9.05
2022-12-26T20:29:17.276Z,9.00
2022-12-26T20:31:43.814Z,8.96
2022-12-26T20:34:11.536Z,8.92
2022-12-26T20:36:38.757Z,8.92
2022-12-26T20:39:14.260Z,8.96
2022-12-26T20:41:41.508Z,9.00
2022-12-26T20:44:08.072Z,9.00
2022-12-26T20:46:35.289Z,9.00
2022-12-26T20:49:04.435Z,8.98
2022-12-26T20:51:37.672Z,8.97
2022-12-26T20:54:06.746Z,8.98
2022-12-26T20:56:33.850Z,9.04
2022-12-26T20:59:00.434Z,9.00
2022-12-26T21:01:27.723Z,9.04
2022-12-26T21:03:55.411Z,9.03
2022-12-26T21:06:25.355Z,9.05
2022-12-26T21:08:53.124Z,9.08
2022-12-26T21:11:30.058Z,9.08
2022-12-26T21:14:03.374Z,9.08
2022-12-26T21:16:36.000Z,9.06
2022-12-26T21:19:03.802Z,9.05
2022-12-26T21:21:33.972Z,9.08
2022-12-26T21:24:06.813Z,9.11
2022-12-26T21:26:36.472Z,9.11
2022-12-26T21:29:05.962Z,9.07
2022-12-26T21:31:34.416Z,9.02
2022-12-26T21:34:02.067Z,9.04
2022-12-26T21:36:29.075Z,9.02
2022-12-26T21:38:57.111Z,9.05
2022-12-26T21:41:25.107Z,9.04
2022-12-26T21:43:54.299Z,9.03
2022-12-26T21:46:20.831Z,9.02
2022-12-26T21:48:47.642Z,9.00
2022-12-26T21:51:15.509Z,9.03
2022-12-26T21:53:42.462Z,9.01
2022-12-26T21:56:10.556Z,9.01
2022-12-26T21:58:56.164Z,9.00
2022-12-26T22:01:24.496Z,9.01
2022-12-26T22:04:10.268Z,9.05
2022-12-26T22:06:37.361Z,9.05
2022-12-26T22:09:04.609Z,9.06
2022-12-26T22:12:06.451Z,9.05
2022-12-26T22:14:33.714Z,9.03
2022-12-26T22:17:00.264Z,9.03
2022-12-26T22:19:26.896Z,9.03
2022-12-26T22:21:54.978Z,9.06
2022-12-26T22:24:22.036Z,9.04
2022-12-26T22:26:48.740Z,9.03
2022-12-26T22:29:15.291Z,9.06
2022-12-26T22:31:41.847Z,9.06
2022-12-26T22:34:12.318Z,9.06
2022-12-26T22:36:40.306Z,9.03
2022-12-26T22:39:07.497Z,9.05
2022-12-26T22:41:34.158Z,9.03
2022-12-26T22:44:00.705Z,9.04
2022-12-26T22:46:27.212Z,9.04
2022-12-26T22:48:53.734Z,9.08
2022-12-26T22:51:25.353Z,9.08
2022-12-26T22:53:57.143Z,9.09
2022-12-26T22:56:23.700Z,9.06
2022-12-26T22:58:54.459Z,9.04
2022-12-26T23:01:21.825Z,9.03
2022-12-26T23:03:48.729Z,9.05
2022-12-26T23:06:26.991Z,9.12
2022-12-26T23:08:56.790Z,9.10
2022-12-26T23:11:28.784Z,9.11
2022-12-26T23:14:01.949Z,9.12
2022-12-26T23:16:50.643Z,9.09
2022-12-26T23:20:06.204Z,9.10
2022-12-26T23:22:33.095Z,9.06
2022-12-26T23:24:59.538Z,9.05
2022-12-26T23:27:44.340Z,9.06
2022-12-26T23:30:20.248Z,9.03
2022-12-26T23:32:52.608Z,8.99
2022-12-26T23:35:20.611Z,8.97
2022-12-26T23:37:47.581Z,9.00
2022-12-26T23:40:18.241Z,8.99
2022-12-26T23:42:45.128Z,8.99
2022-12-26T23:45:14.149Z,8.99
2022-12-26T23:47:42.624Z,8.98
2022-12-26T23:50:11.147Z,8.96
2022-12-26T23:52:38.130Z,8.87
2022-12-26T23:55:05.276Z,8.83
2022-12-26T23:57:31.720Z,8.87
2022-12-26T23:59:58.154Z,8.89
